createdAt,value
2024-02-24T00:00:01.146Z,5.07
2024-02-24T00:00:57.840Z,6.50
2024-02-24T00:01:54.528Z,6.00
2024-02-24T00:02:51.311Z,6.20
2024-02-24T00:03:48.067Z,5.93
2024-02-24T00:04:44.875Z,5.50
2024-02-24T00:05:41.930Z,5.80
2024-02-24T00:06:38.696Z,6.45
2024-02-24T00:07:35.355Z,6.13
2024-02-24T00:08:32.012Z,5.50
2024-02-24T00:09:28.936Z,6.10
2024-02-24T00:10:25.704Z,5.75
2024-02-24T00:11:22.418Z,5.90
2024-02-24T00:12:19.139Z,5.68
2024-02-24T00:13:15.848Z,5.40
2024-02-24T00:14:12.582Z,5.97
2024-02-24T00:15:10.192Z,6.00
2024-02-24T00:16:07.060Z,6.03
2024-02-24T00:17:04.174Z,5.95
2024-02-24T00:18:00.970Z,5.45
2024-02-24T00:19:00.527Z,5.95
2024-02-24T00:19:57.388Z,5.70
2024-02-24T00:20:54.334Z,5.32
2024-02-24T00:21:51.892Z,5.78
2024-02-24T00:22:48.678Z,5.90
2024-02-24T00:23:45.278Z,5.95
2024-02-24T00:24:41.920Z,5.80
2024-02-24T00:25:38.642Z,5.78
2024-02-24T00:26:35.456Z,5.75
2024-02-24T00:27:32.052Z,6.45
2024-02-24T00:28:28.675Z,5.80
2024-02-24T00:29:25.321Z,5.90
2024-02-24T00:30:22.001Z,5.53
2024-02-24T00:31:18.660Z,5.43
2024-02-24T00:32:15.323Z,5.55
2024-02-24T00:33:11.983Z,5.75
2024-02-24T00:34:08.663Z,5.50
2024-02-24T00:35:06.253Z,5.65
2024-02-24T00:36:04.849Z,5.60
2024-02-24T00:37:01.590Z,5.40
2024-02-24T00:37:58.729Z,5.47
2024-02-24T00:38:55.532Z,5.60
2024-02-24T00:39:53.203Z,5.70
2024-02-24T00:40:49.758Z,5.85
2024-02-24T00:41:46.502Z,5.65
2024-02-24T00:42:43.091Z,6.05
2024-02-24T00:43:39.713Z,5.55
2024-02-24T00:44:36.394Z,5.70
2024-02-24T00:45:33.078Z,5.80
2024-02-24T00:46:29.693Z,5.72
2024-02-24T00:47:26.364Z,5.07
2024-02-24T00:48:23.045Z,5.50
2024-02-24T00:49:19.917Z,5.90
2024-02-24T00:50:17.586Z,5.75
2024-02-24T00:51:14.266Z,6.13
2024-02-24T00:52:10.897Z,5.03
2024-02-24T00:53:07.641Z,4.95
2024-02-24T00:54:05.645Z,5.63
2024-02-24T00:55:02.422Z,5.95
2024-02-24T00:55:59.040Z,5.93
2024-02-24T00:56:55.611Z,5.07
2024-02-24T00:57:52.228Z,6.05
2024-02-24T00:58:48.804Z,6.20
2024-02-24T00:59:45.514Z,5.93
2024-02-24T01:00:42.340Z,6.03
2024-02-24T01:01:39.009Z,5.45
2024-02-24T01:02:35.655Z,5.40
2024-02-24T01:03:32.290Z,5.70
2024-02-24T01:04:30.150Z,6.07
2024-02-24T01:05:26.892Z,5.45
2024-02-24T01:06:23.654Z,6.00
2024-02-24T01:07:20.351Z,5.15
2024-02-24T01:08:17.106Z,5.97
2024-02-24T01:09:13.928Z,5.72
2024-02-24T01:10:11.312Z,5.97
2024-02-24T01:11:08.581Z,5.70
2024-02-24T01:12:05.950Z,5.97
2024-02-24T01:13:02.750Z,6.00
2024-02-24T01:14:00.282Z,6.00
2024-02-24T01:14:58.363Z,6.10
2024-02-24T01:15:55.307Z,5.97
2024-02-24T01:16:51.931Z,5.95
2024-02-24T01:17:50.377Z,6.25
2024-02-24T01:18:47.100Z,5.75
2024-02-24T01:19:43.745Z,5.88
2024-02-24T01:20:40.468Z,5.68
2024-02-24T01:21:43.535Z,6.22
2024-02-24T01:22:40.195Z,6.30
2024-02-24T01:23:36.849Z,6.50
2024-02-24T01:24:33.567Z,6.25
2024-02-24T01:25:30.181Z,5.88
2024-02-24T01:26:26.789Z,6.18
2024-02-24T01:27:23.508Z,6.10
2024-02-24T01:28:21.637Z,6.15
2024-02-24T01:29:18.269Z,5.82
2024-02-24T01:30:14.952Z,6.05
2024-02-24T01:31:11.565Z,6.28
2024-02-24T01:32:08.246Z,5.85
2024-02-24T01:33:08.083Z,5.93
2024-02-24T01:34:05.061Z,6.18
2024-02-24T01:35:03.770Z,5.78
2024-02-24T01:36:00.377Z,6.32
2024-02-24T01:36:57.698Z,6.18
2024-02-24T01:37:54.314Z,6.82
2024-02-24T01:38:51.106Z,6.05
2024-02-24T01:39:47.984Z,6.25
2024-02-24T01:40:44.778Z,6.50
2024-02-24T01:41:41.468Z,6.03
2024-02-24T01:42:38.216Z,6.32
2024-02-24T01:43:38.432Z,6.10
2024-02-24T01:44:35.183Z,6.28
2024-02-24T01:45:32.132Z,5.65
2024-02-24T01:46:29.741Z,6.20
2024-02-24T01:47:26.475Z,6.25
2024-02-24T01:48:23.832Z,6.07
2024-02-24T01:49:20.749Z,6.38
2024-02-24T01:50:17.781Z,6.22
2024-02-24T01:51:16.350Z,5.60
2024-02-24T01:52:13.606Z,5.90
2024-02-24T01:53:10.820Z,5.90
2024-02-24T01:54:08.311Z,6.15
2024-02-24T01:55:06.093Z,5.97
2024-02-24T01:56:07.807Z,6.07
2024-02-24T01:57:05.939Z,5.50
2024-02-24T01:58:04.749Z,5.80
2024-02-24T01:59:02.019Z,5.95
2024-02-24T01:59:58.836Z,5.75
2024-02-24T02:00:55.787Z,6.10
2024-02-24T02:01:52.975Z,5.50
2024-02-24T02:02:50.322Z,5.80
2024-02-24T02:03:47.070Z,5.32
2024-02-24T02:04:43.803Z,6.32
2024-02-24T02:05:41.260Z,5.85
2024-02-24T02:07:36.351Z,5.85
2024-02-24T02:08:33.367Z,6.15
2024-02-24T02:09:30.077Z,6.45
2024-02-24T02:10:26.782Z,5.80
2024-02-24T02:11:23.706Z,5.88
2024-02-24T02:12:20.466Z,5.45
2024-02-24T02:13:17.224Z,5.55
2024-02-24T02:14:13.891Z,5.95
2024-02-24T02:15:10.923Z,5.45
2024-02-24T02:16:07.915Z,5.03
2024-02-24T02:17:04.728Z,5.40
2024-02-24T02:18:01.590Z,4.95
2024-02-24T02:18:58.543Z,5.57
2024-02-24T02:20:00.720Z,5.00
2024-02-24T02:20:59.900Z,4.75
2024-02-24T02:21:59.824Z,5.28
2024-02-24T02:22:56.910Z,4.78
2024-02-24T02:23:53.611Z,4.60
2024-02-24T02:24:50.242Z,4.25
2024-02-24T02:25:47.007Z,4.45
2024-02-24T02:26:43.638Z,4.70
2024-02-24T02:27:40.228Z,4.43
2024-02-24T02:28:36.920Z,4.35
2024-02-24T02:29:36.782Z,4.55
2024-02-24T02:30:33.628Z,4.68
2024-02-24T02:31:30.282Z,4.90
2024-02-24T02:32:27.100Z,4.80
2024-02-24T02:33:24.086Z,4.55
2024-02-24T02:34:21.105Z,4.43
2024-02-24T02:35:18.939Z,4.50
2024-02-24T02:36:15.605Z,4.00
2024-02-24T02:37:12.209Z,4.13
2024-02-24T02:38:10.593Z,4.50
2024-02-24T02:39:07.289Z,4.20
2024-02-24T02:40:04.572Z,4.30
2024-02-24T02:41:02.985Z,4.72
2024-02-24T02:41:59.612Z,4.40
2024-02-24T02:42:56.324Z,4.55
2024-02-24T02:43:53.016Z,4.80
2024-02-24T02:44:49.577Z,4.38
2024-02-24T02:45:46.218Z,4.18
2024-02-24T02:46:50.244Z,4.40
2024-02-24T02:47:47.002Z,4.65
2024-02-24T02:48:43.883Z,3.97
2024-02-24T02:49:40.660Z,3.95
2024-02-24T02:50:37.394Z,4.38
2024-02-24T02:51:34.125Z,4.32
2024-02-24T02:52:31.340Z,4.32
2024-02-24T02:53:28.073Z,4.05
2024-02-24T02:54:24.749Z,4.05
2024-02-24T02:55:22.147Z,4.50
2024-02-24T02:56:22.150Z,4.63
2024-02-24T02:57:18.970Z,5.03
2024-02-24T02:58:15.711Z,3.95
2024-02-24T02:59:12.366Z,4.20
2024-02-24T03:00:09.548Z,4.38
2024-02-24T03:01:09.866Z,3.83
2024-02-24T03:02:06.586Z,3.90
2024-02-24T03:03:03.449Z,4.50
2024-02-24T03:04:00.158Z,4.85
2024-02-24T03:04:56.864Z,4.40
2024-02-24T03:05:53.586Z,5.10
2024-02-24T03:06:50.437Z,4.32
2024-02-24T03:07:47.236Z,4.57
2024-02-24T03:08:43.841Z,3.75
2024-02-24T03:09:40.478Z,4.10
2024-02-24T03:10:37.771Z,4.25
2024-02-24T03:11:34.845Z,4.15
2024-02-24T03:12:31.618Z,4.70
2024-02-24T03:13:28.298Z,4.45
2024-02-24T03:14:25.045Z,4.40
2024-02-24T03:15:21.819Z,4.07
2024-02-24T03:16:21.483Z,4.45
2024-02-24T03:17:18.183Z,4.10
2024-02-24T03:18:15.632Z,4.40
2024-02-24T03:19:12.879Z,4.38
2024-02-24T03:20:10.308Z,4.38
2024-02-24T03:21:07.074Z,4.07
2024-02-24T03:22:03.853Z,4.40
2024-02-24T03:23:00.584Z,4.43
2024-02-24T03:23:57.319Z,4.70
2024-02-24T03:24:54.792Z,3.78
2024-02-24T03:25:51.411Z,4.03
2024-02-24T03:26:48.228Z,4.18
2024-02-24T03:27:44.928Z,4.50
2024-02-24T03:28:41.546Z,3.95
2024-02-24T03:29:38.336Z,4.18
2024-02-24T03:30:34.967Z,3.80
2024-02-24T03:31:31.553Z,3.83
2024-02-24T03:32:28.305Z,4.40
2024-02-24T03:33:25.072Z,4.07
2024-02-24T03:34:21.816Z,4.10
2024-02-24T03:35:18.564Z,4.38
2024-02-24T03:36:16.855Z,3.72
2024-02-24T03:37:13.613Z,4.20
2024-02-24T03:38:10.249Z,3.88
2024-02-24T03:39:07.737Z,3.90
2024-02-24T03:40:04.776Z,4.00
2024-02-24T03:41:01.509Z,3.90
2024-02-24T03:41:58.337Z,4.00
2024-02-24T03:42:55.021Z,4.25
2024-02-24T03:43:51.844Z,3.72
2024-02-24T03:44:48.622Z,3.67
2024-02-24T03:45:45.248Z,3.67
2024-02-24T03:46:41.954Z,4.22
2024-02-24T03:47:38.636Z,4.20
2024-02-24T03:48:35.527Z,3.90
2024-02-24T03:49:32.261Z,4.10
2024-02-24T03:50:28.963Z,3.80
2024-02-24T03:51:25.599Z,3.80
2024-02-24T03:52:22.409Z,4.05
2024-02-24T03:53:19.083Z,3.90
2024-02-24T03:54:15.718Z,4.13
2024-02-24T03:55:12.325Z,4.18
2024-02-24T03:56:09.046Z,4.43
2024-02-24T03:57:05.814Z,4.18
2024-02-24T03:58:02.530Z,4.20
2024-02-24T03:58:59.124Z,4.07
2024-02-24T03:59:56.351Z,3.45
2024-02-24T04:00:53.377Z,3.97
2024-02-24T04:01:50.105Z,3.90
2024-02-24T04:02:46.866Z,4.00
2024-02-24T04:03:43.588Z,4.15
2024-02-24T04:04:40.357Z,4.40
2024-02-24T04:05:37.059Z,3.90
2024-02-24T04:06:33.772Z,3.63
2024-02-24T04:07:30.376Z,3.63
2024-02-24T04:08:27.092Z,3.55
2024-02-24T04:09:23.827Z,4.00
2024-02-24T04:10:20.557Z,3.90
2024-02-24T04:11:17.517Z,3.60
2024-02-24T04:12:14.233Z,3.78
2024-02-24T04:13:11.014Z,4.22
2024-02-24T04:14:07.687Z,3.50
2024-02-24T04:15:04.637Z,3.95
2024-02-24T04:16:01.287Z,4.03
2024-02-24T04:16:57.985Z,4.30
2024-02-24T04:17:54.760Z,4.00
2024-02-24T04:18:51.652Z,4.10
2024-02-24T04:19:48.382Z,4.38
2024-02-24T04:20:46.404Z,4.00
2024-02-24T04:21:43.101Z,3.55
2024-02-24T04:22:40.253Z,4.03
2024-02-24T04:23:37.068Z,3.75
2024-02-24T04:24:33.810Z,4.07
2024-02-24T04:25:30.410Z,3.50
2024-02-24T04:26:26.993Z,3.85
2024-02-24T04:27:23.623Z,3.80
2024-02-24T04:28:22.635Z,4.15
2024-02-24T04:29:19.810Z,3.50
2024-02-24T04:30:16.566Z,4.50
2024-02-24T04:31:13.293Z,4.20
2024-02-24T04:32:09.923Z,3.83
2024-02-24T04:33:07.777Z,4.75
2024-02-24T04:34:04.541Z,3.60
2024-02-24T04:35:01.655Z,4.05
2024-02-24T04:35:58.672Z,3.95
2024-02-24T04:36:55.359Z,3.78
2024-02-24T04:37:51.954Z,3.90
2024-02-24T04:38:48.999Z,3.90
2024-02-24T04:39:45.630Z,4.05
2024-02-24T04:40:42.279Z,4.10
2024-02-24T04:41:39.013Z,4.20
2024-02-24T04:42:35.687Z,3.95
2024-02-24T04:43:35.529Z,4.13
2024-02-24T04:44:34.129Z,3.70
2024-02-24T04:45:30.836Z,3.83
2024-02-24T04:46:27.488Z,4.20
2024-02-24T04:47:27.135Z,4.53
2024-02-24T04:48:24.664Z,4.07
2024-02-24T04:49:21.524Z,3.85
2024-02-24T04:50:18.200Z,3.80
2024-02-24T04:51:14.886Z,4.03
2024-02-24T04:52:11.496Z,4.00
2024-02-24T04:53:08.329Z,3.95
2024-02-24T04:54:05.052Z,4.63
2024-02-24T04:55:01.741Z,6.05
2024-02-24T04:55:58.320Z,5.03
2024-02-24T04:56:55.012Z,6.90
2024-02-24T04:57:51.658Z,6.10
2024-02-24T04:58:48.255Z,5.20
2024-02-24T04:59:44.983Z,5.53
2024-02-24T05:00:41.675Z,6.25
2024-02-24T05:01:38.588Z,8.00
2024-02-24T05:02:35.789Z,7.00
2024-02-24T05:03:32.510Z,11.43
2024-02-24T05:04:29.180Z,7.60
2024-02-24T05:05:25.915Z,7.03
2024-02-24T05:06:22.719Z,8.98
2024-02-24T05:07:19.396Z,7.20
2024-02-24T05:08:16.212Z,5.80
2024-02-24T05:09:13.637Z,4.82
2024-02-24T05:10:10.468Z,5.90
2024-02-24T05:11:07.168Z,5.30
2024-02-24T05:12:04.130Z,6.07
2024-02-24T05:13:02.997Z,6.10
2024-02-24T05:14:00.993Z,6.80
2024-02-24T05:14:57.603Z,5.15
2024-02-24T05:15:54.440Z,5.32
2024-02-24T05:16:51.118Z,10.32
2024-02-24T05:17:48.061Z,10.20
2024-02-24T05:18:44.882Z,7.93
2024-02-24T05:19:41.799Z,5.47
2024-02-24T05:20:39.131Z,5.03
2024-02-24T05:21:36.007Z,5.35
2024-02-24T05:22:32.596Z,4.30
2024-02-24T05:23:29.739Z,4.60
2024-02-24T05:24:26.390Z,4.50
2024-02-24T05:25:23.030Z,4.45
2024-02-24T05:26:24.164Z,5.00
2024-02-24T05:27:21.215Z,5.28
2024-02-24T05:28:18.004Z,5.28
2024-02-24T05:29:15.694Z,4.95
2024-02-24T05:30:12.403Z,4.00
2024-02-24T05:31:09.069Z,4.00
2024-02-24T05:32:05.860Z,4.20
2024-02-24T05:33:02.645Z,4.35
2024-02-24T05:33:59.415Z,4.00
2024-02-24T05:34:56.257Z,4.95
2024-02-24T05:35:52.968Z,3.50
2024-02-24T05:36:50.033Z,4.10
2024-02-24T05:37:46.678Z,4.15
2024-02-24T05:38:43.796Z,3.58
2024-02-24T05:39:40.441Z,4.15
2024-02-24T05:40:37.122Z,4.60
2024-02-24T05:41:34.481Z,4.38
2024-02-24T05:42:31.225Z,3.80
2024-02-24T05:43:28.602Z,4.25
2024-02-24T05:44:26.065Z,3.70
2024-02-24T05:45:22.744Z,4.38
2024-02-24T05:46:19.583Z,4.20
2024-02-24T05:47:16.279Z,4.38
2024-02-24T05:48:12.987Z,3.80
2024-02-24T05:49:09.828Z,4.18
2024-02-24T05:50:07.072Z,4.47
2024-02-24T05:51:10.156Z,4.10
2024-02-24T05:52:06.767Z,4.05
2024-02-24T05:53:03.499Z,4.78
2024-02-24T05:54:00.280Z,4.05
2024-02-24T05:54:56.982Z,4.03
2024-02-24T05:55:53.751Z,5.10
2024-02-24T05:56:50.418Z,4.50
2024-02-24T05:57:47.095Z,4.38
2024-02-24T05:58:43.824Z,4.10
2024-02-24T05:59:40.456Z,4.13
2024-02-24T06:00:37.264Z,4.28
2024-02-24T06:01:34.082Z,4.50
2024-02-24T06:02:30.728Z,4.40
2024-02-24T06:03:28.800Z,4.40
2024-02-24T06:04:25.451Z,4.72
2024-02-24T06:05:22.071Z,4.80
2024-02-24T06:06:19.534Z,4.57
2024-02-24T06:07:16.278Z,4.18
2024-02-24T06:08:13.600Z,4.15
2024-02-24T06:09:10.298Z,4.40
2024-02-24T06:10:07.975Z,4.45
2024-02-24T06:11:04.685Z,4.28
2024-02-24T06:12:01.459Z,4.13
2024-02-24T06:13:00.559Z,4.15
2024-02-24T06:13:57.187Z,4.43
2024-02-24T06:14:53.906Z,4.10
2024-02-24T06:15:50.567Z,4.50
2024-02-24T06:16:47.252Z,4.20
2024-02-24T06:17:43.954Z,4.30
2024-02-24T06:18:40.758Z,4.20
2024-02-24T06:19:37.520Z,4.20
2024-02-24T06:20:34.337Z,4.47
2024-02-24T06:21:32.668Z,4.60
2024-02-24T06:22:29.320Z,4.72
2024-02-24T06:23:26.119Z,4.43
2024-02-24T06:24:22.849Z,4.45
2024-02-24T06:25:19.840Z,4.60
2024-02-24T06:26:16.599Z,5.00
2024-02-24T06:27:13.229Z,4.35
2024-02-24T06:28:12.032Z,4.40
2024-02-24T06:29:09.149Z,4.18
2024-02-24T06:30:06.847Z,4.10
2024-02-24T06:31:03.621Z,4.38
2024-02-24T06:32:00.223Z,4.53
2024-02-24T06:32:56.984Z,4.40
2024-02-24T06:33:54.793Z,5.55
2024-02-24T06:34:51.542Z,5.50
2024-02-24T06:35:48.293Z,4.80
2024-02-24T06:36:44.980Z,4.80
2024-02-24T06:37:43.460Z,4.40
2024-02-24T06:38:40.105Z,4.20
2024-02-24T06:39:36.777Z,4.65
2024-02-24T06:40:41.201Z,4.47
2024-02-24T06:41:42.384Z,4.30
2024-02-24T06:42:39.177Z,4.63
2024-02-24T06:43:35.870Z,5.18
2024-02-24T06:44:32.586Z,4.72
2024-02-24T06:45:29.218Z,4.25
2024-02-24T06:46:26.519Z,4.18
2024-02-24T06:47:29.111Z,4.15
2024-02-24T06:48:26.530Z,4.15
2024-02-24T06:49:23.404Z,4.30
2024-02-24T06:50:20.890Z,4.30
2024-02-24T06:51:17.548Z,4.22
2024-02-24T06:52:14.249Z,4.13
2024-02-24T06:53:11.011Z,4.43
2024-02-24T06:54:07.684Z,4.45
2024-02-24T06:55:04.781Z,4.07
2024-02-24T06:56:10.762Z,4.57
2024-02-24T06:57:07.978Z,4.18
2024-02-24T06:58:04.778Z,4.50
2024-02-24T06:59:07.084Z,4.47
2024-02-24T07:00:04.510Z,4.20
2024-02-24T07:01:01.242Z,4.50
2024-02-24T07:01:57.885Z,4.25
2024-02-24T07:02:55.764Z,3.85
2024-02-24T07:03:52.812Z,3.85
2024-02-24T07:04:49.542Z,3.80
2024-02-24T07:05:46.436Z,4.28
2024-02-24T07:06:43.294Z,3.85
2024-02-24T07:07:39.891Z,3.40
2024-02-24T07:08:36.602Z,3.60
2024-02-24T07:09:33.504Z,3.88
2024-02-24T07:10:30.151Z,3.90
2024-02-24T07:11:26.896Z,3.88
2024-02-24T07:12:23.627Z,3.75
2024-02-24T07:13:20.387Z,3.60
2024-02-24T07:14:17.096Z,3.60
2024-02-24T07:15:13.748Z,3.45
2024-02-24T07:16:10.769Z,3.80
2024-02-24T07:17:07.680Z,3.92
2024-02-24T07:18:06.865Z,3.67
2024-02-24T07:19:03.705Z,3.63
2024-02-24T07:20:00.348Z,4.07
2024-02-24T07:20:57.580Z,3.47
2024-02-24T07:21:54.993Z,3.42
2024-02-24T07:22:51.649Z,3.58
2024-02-24T07:23:49.009Z,4.18
2024-02-24T07:24:45.697Z,3.90
2024-02-24T07:25:43.010Z,3.72
2024-02-24T07:26:46.823Z,3.80
2024-02-24T07:27:45.772Z,3.85
2024-02-24T07:28:42.403Z,3.55
2024-02-24T07:29:39.176Z,3.50
2024-02-24T07:30:35.910Z,3.97
2024-02-24T07:31:32.562Z,3.85
2024-02-24T07:32:29.359Z,3.80
2024-02-24T07:33:26.166Z,3.60
2024-02-24T07:34:23.051Z,3.38
2024-02-24T07:35:19.781Z,3.63
2024-02-24T07:36:16.525Z,4.25
2024-02-24T07:37:13.290Z,3.75
2024-02-24T07:38:09.938Z,3.95
2024-02-24T07:39:06.549Z,3.70
2024-02-24T07:40:06.511Z,3.75
2024-02-24T07:41:03.302Z,3.55
2024-02-24T07:42:00.036Z,3.25
2024-02-24T07:42:56.734Z,3.72
2024-02-24T07:43:53.366Z,4.30
2024-02-24T07:44:50.052Z,4.05
2024-02-24T07:45:46.753Z,4.30
2024-02-24T07:46:43.456Z,4.40
2024-02-24T07:47:40.142Z,4.05
2024-02-24T07:48:38.816Z,4.32
2024-02-24T07:49:35.613Z,4.18
2024-02-24T07:50:32.302Z,3.92
2024-02-24T07:51:29.740Z,4.53
2024-02-24T07:52:26.394Z,3.85
2024-02-24T07:53:23.029Z,4.55
2024-02-24T07:54:19.763Z,3.92
2024-02-24T07:55:16.907Z,3.90
2024-02-24T07:56:13.611Z,4.07
2024-02-24T07:57:10.336Z,4.38
2024-02-24T07:58:06.945Z,4.10
2024-02-24T07:59:04.904Z,3.80
2024-02-24T08:00:01.577Z,4.40
2024-02-24T08:00:58.224Z,3.78
2024-02-24T08:01:54.964Z,3.97
2024-02-24T08:02:51.659Z,4.10
2024-02-24T08:03:48.384Z,3.83
2024-02-24T08:04:44.981Z,3.63
2024-02-24T08:05:41.732Z,3.85
2024-02-24T08:06:38.611Z,3.80
2024-02-24T08:07:35.975Z,4.18
2024-02-24T08:08:35.171Z,3.63
2024-02-24T08:09:31.886Z,4.07
2024-02-24T08:10:28.512Z,3.75
2024-02-24T08:11:25.561Z,3.65
2024-02-24T08:12:22.670Z,3.60
2024-02-24T08:13:19.889Z,3.72
2024-02-24T08:14:16.612Z,3.45
2024-02-24T08:15:13.265Z,3.55
2024-02-24T08:16:10.476Z,3.70
2024-02-24T08:17:07.772Z,3.40
2024-02-24T08:18:04.909Z,3.58
2024-02-24T08:19:03.145Z,3.63
2024-02-24T08:19:59.969Z,3.35
2024-02-24T08:20:56.834Z,3.90
2024-02-24T08:21:53.578Z,3.60
2024-02-24T08:22:51.488Z,3.80
2024-02-24T08:23:48.286Z,3.80
2024-02-24T08:24:44.959Z,3.78
2024-02-24T08:25:41.580Z,3.97
2024-02-24T08:26:41.268Z,3.30
2024-02-24T08:27:38.521Z,3.55
2024-02-24T08:28:35.134Z,3.58
2024-02-24T08:29:33.158Z,3.30
2024-02-24T08:30:29.916Z,3.58
2024-02-24T08:31:26.551Z,3.50
2024-02-24T08:32:23.454Z,3.40
2024-02-24T08:33:24.142Z,3.67
2024-02-24T08:34:21.149Z,3.40
2024-02-24T08:35:18.413Z,3.50
2024-02-24T08:36:17.160Z,3.33
2024-02-24T08:37:13.957Z,3.85
2024-02-24T08:38:10.594Z,3.70
2024-02-24T08:39:07.454Z,4.05
2024-02-24T08:40:04.375Z,3.45
2024-02-24T08:41:01.066Z,3.78
2024-02-24T08:41:58.150Z,3.28
2024-02-24T08:42:54.860Z,3.55
2024-02-24T08:43:51.420Z,3.38
2024-02-24T08:44:48.144Z,3.28
2024-02-24T08:45:44.963Z,3.58
2024-02-24T08:46:41.608Z,3.60
2024-02-24T08:47:38.434Z,3.58
2024-02-24T08:48:35.491Z,3.33
2024-02-24T08:49:32.286Z,3.47
2024-02-24T08:50:29.090Z,3.10
2024-02-24T08:51:27.640Z,3.35
2024-02-24T08:52:32.840Z,3.20
2024-02-24T08:53:34.709Z,3.70
2024-02-24T08:54:31.394Z,3.60
2024-02-24T08:55:28.075Z,3.53
2024-02-24T08:56:26.176Z,3.60
2024-02-24T08:57:22.933Z,3.63
2024-02-24T08:58:19.643Z,3.47
2024-02-24T08:59:16.600Z,3.15
2024-02-24T09:00:16.202Z,3.40
2024-02-24T09:01:15.272Z,3.63
2024-02-24T09:02:12.255Z,3.63
2024-02-24T09:03:09.065Z,3.47
2024-02-24T09:04:06.976Z,3.78
2024-02-24T09:05:04.644Z,3.67
2024-02-24T09:06:01.391Z,3.88
2024-02-24T09:06:58.171Z,3.70
2024-02-24T09:07:54.919Z,3.78
2024-02-24T09:08:51.580Z,3.70
2024-02-24T09:09:48.178Z,3.70
2024-02-24T09:10:44.818Z,3.58
2024-02-24T09:11:47.553Z,3.53
2024-02-24T09:12:44.313Z,3.45
2024-02-24T09:13:40.925Z,3.55
2024-02-24T09:14:37.651Z,3.67
2024-02-24T09:15:34.461Z,3.53
2024-02-24T09:16:31.104Z,3.80
2024-02-24T09:17:27.921Z,3.38
2024-02-24T09:18:26.208Z,3.38
2024-02-24T09:19:23.753Z,3.78
2024-02-24T09:20:20.925Z,3.35
2024-02-24T09:21:17.681Z,3.85
2024-02-24T09:22:14.388Z,3.90
2024-02-24T09:23:11.480Z,4.20
2024-02-24T09:24:08.412Z,3.53
2024-02-24T09:25:05.396Z,4.00
2024-02-24T09:26:03.268Z,3.35
2024-02-24T09:27:00.044Z,3.92
2024-02-24T09:27:56.824Z,3.40
2024-02-24T09:28:53.467Z,3.35
2024-02-24T09:29:50.460Z,3.92
2024-02-24T09:30:47.903Z,3.80
2024-02-24T09:31:44.620Z,3.53
2024-02-24T09:32:41.668Z,3.58
2024-02-24T09:33:38.731Z,3.58
2024-02-24T09:34:35.462Z,3.60
2024-02-24T09:35:32.135Z,3.60
2024-02-24T09:36:28.896Z,4.13
2024-02-24T09:37:25.555Z,3.72
2024-02-24T09:38:22.213Z,3.50
2024-02-24T09:39:18.860Z,3.60
2024-02-24T09:40:15.690Z,3.53
2024-02-24T09:41:12.940Z,4.05
2024-02-24T09:42:10.958Z,3.60
2024-02-24T09:43:09.749Z,3.60
2024-02-24T09:44:06.595Z,3.55
2024-02-24T09:45:13.060Z,3.63
2024-02-24T09:46:10.977Z,3.67
2024-02-24T09:47:09.485Z,3.58
2024-02-24T09:48:06.484Z,3.67
2024-02-24T09:49:03.586Z,3.72
2024-02-24T09:50:01.656Z,3.85
2024-02-24T09:51:00.753Z,3.92
2024-02-24T09:51:58.489Z,3.78
2024-02-24T09:52:55.189Z,3.75
2024-02-24T09:53:51.789Z,3.83
2024-02-24T09:54:48.505Z,3.90
2024-02-24T09:55:45.616Z,3.40
2024-02-24T09:56:43.840Z,3.75
2024-02-24T09:57:41.853Z,3.13
2024-02-24T09:58:39.969Z,3.70
2024-02-24T09:59:37.253Z,3.40
2024-02-24T10:00:34.298Z,3.75
2024-02-24T10:01:30.990Z,3.85
2024-02-24T10:02:27.996Z,3.58
2024-02-24T10:03:26.495Z,3.45
2024-02-24T10:04:24.466Z,3.60
2024-02-24T10:05:21.347Z,3.85
2024-02-24T10:06:18.810Z,4.03
2024-02-24T10:07:15.484Z,3.47
2024-02-24T10:08:12.188Z,3.42
2024-02-24T10:09:08.835Z,3.75
2024-02-24T10:10:05.993Z,3.80
2024-02-24T10:11:02.664Z,3.83
2024-02-24T10:12:01.244Z,3.78
2024-02-24T10:12:59.801Z,3.53
2024-02-24T10:13:56.803Z,4.00
2024-02-24T10:14:54.850Z,3.50
2024-02-24T10:15:51.512Z,3.47
2024-02-24T10:16:53.393Z,3.95
2024-02-24T10:17:50.117Z,3.60
2024-02-24T10:18:47.650Z,2.97
2024-02-24T10:19:47.052Z,2.92
2024-02-24T10:20:43.729Z,2.90
2024-02-24T10:21:40.504Z,2.83
2024-02-24T10:22:38.726Z,3.10
2024-02-24T10:23:35.438Z,2.40
2024-02-24T10:24:33.113Z,2.60
2024-02-24T10:25:31.306Z,2.42
2024-02-24T10:26:28.962Z,2.80
2024-02-24T10:27:27.137Z,2.60
2024-02-24T10:28:23.803Z,2.90
2024-02-24T10:29:38.702Z,2.88
2024-02-24T10:30:35.818Z,2.90
2024-02-24T10:31:35.156Z,2.63
2024-02-24T10:32:34.483Z,2.80
2024-02-24T10:33:35.295Z,2.63
2024-02-24T10:34:33.808Z,2.65
2024-02-24T10:35:31.298Z,2.70
2024-02-24T10:36:29.059Z,2.40
2024-02-24T10:37:25.736Z,3.42
2024-02-24T10:38:29.489Z,2.67
2024-02-24T10:39:35.800Z,3.05
2024-02-24T10:40:33.895Z,2.70
2024-02-24T10:41:31.432Z,2.70
2024-02-24T10:42:29.815Z,2.90
2024-02-24T10:43:29.185Z,3.00
2024-02-24T10:44:26.293Z,2.85
2024-02-24T10:45:23.657Z,2.80
2024-02-24T10:46:20.632Z,2.90
2024-02-24T10:47:17.327Z,2.70
2024-02-24T10:48:14.139Z,2.75
2024-02-24T10:49:12.409Z,2.90
2024-02-24T10:50:12.546Z,2.80
2024-02-24T10:51:13.076Z,2.67
2024-02-24T10:52:10.065Z,2.78
2024-02-24T10:53:07.872Z,2.80
2024-02-24T10:54:11.573Z,3.03
2024-02-24T10:55:09.352Z,2.70
2024-02-24T10:56:07.755Z,3.10
2024-02-24T10:57:06.510Z,2.90
2024-02-24T10:58:03.236Z,2.72
2024-02-24T10:59:12.688Z,2.92
2024-02-24T11:00:32.955Z,2.67
2024-02-24T11:01:30.119Z,2.92
2024-02-24T11:02:27.984Z,2.30
2024-02-24T11:03:24.900Z,2.50
2024-02-24T11:04:21.558Z,2.70
2024-02-24T11:05:19.107Z,2.78
2024-02-24T11:06:16.390Z,2.60
2024-02-24T11:07:23.946Z,3.00
2024-02-24T11:08:37.326Z,2.88
2024-02-24T11:09:39.166Z,2.45
2024-02-24T11:10:36.029Z,2.75
2024-02-24T11:11:32.720Z,2.90
2024-02-24T11:12:32.418Z,2.90
2024-02-24T11:13:30.105Z,2.60
2024-02-24T11:14:26.730Z,3.15
2024-02-24T11:15:25.285Z,2.67
2024-02-24T11:16:24.898Z,2.70
2024-02-24T11:17:48.068Z,2.80
2024-02-24T11:18:50.685Z,3.00
2024-02-24T11:19:48.878Z,3.10
2024-02-24T11:20:48.608Z,2.60
2024-02-24T11:22:03.118Z,2.80
2024-02-24T11:23:18.400Z,3.15
2024-02-24T11:24:20.229Z,2.95
2024-02-24T11:25:19.713Z,3.75
2024-02-24T11:26:22.219Z,2.97
2024-02-24T11:27:28.635Z,2.83
2024-02-24T11:28:25.786Z,3.00
2024-02-24T11:29:27.880Z,2.70
2024-02-24T11:30:37.059Z,3.25
2024-02-24T11:31:36.481Z,2.95
2024-02-24T11:32:33.225Z,3.28
2024-02-24T11:33:32.048Z,2.92
2024-02-24T11:34:33.899Z,2.95
2024-02-24T11:35:30.716Z,3.10
2024-02-24T11:36:28.284Z,2.72
2024-02-24T11:37:25.091Z,2.70
2024-02-24T11:38:23.337Z,3.00
2024-02-24T11:39:21.217Z,2.97
2024-02-24T11:40:18.528Z,3.22
2024-02-24T11:41:15.517Z,3.30
2024-02-24T11:42:13.173Z,3.20
2024-02-24T11:43:10.256Z,2.92
2024-02-24T11:44:08.152Z,2.80
2024-02-24T11:45:07.621Z,3.05
2024-02-24T11:46:05.012Z,3.15
2024-02-24T11:47:01.809Z,3.20
2024-02-24T11:47:58.576Z,3.08
2024-02-24T11:48:55.608Z,3.38
2024-02-24T11:49:52.663Z,3.13
2024-02-24T11:50:51.848Z,3.03
2024-02-24T11:51:48.683Z,3.15
2024-02-24T11:52:45.459Z,3.10
2024-02-24T11:53:42.148Z,3.00
2024-02-24T11:54:38.961Z,3.15
2024-02-24T11:55:36.023Z,3.25
2024-02-24T11:56:33.799Z,3.40
2024-02-24T11:57:30.517Z,3.20
2024-02-24T11:58:27.817Z,3.47
2024-02-24T11:59:24.434Z,3.50
2024-02-24T12:00:21.842Z,3.58
2024-02-24T12:01:18.506Z,3.63
2024-02-24T12:02:16.455Z,4.15
2024-02-24T12:03:17.193Z,3.40
2024-02-24T12:04:21.414Z,3.30
2024-02-24T12:05:18.533Z,3.40
2024-02-24T12:06:16.125Z,3.30
2024-02-24T12:07:13.238Z,3.25
2024-02-24T12:08:14.447Z,3.60
2024-02-24T12:09:11.719Z,3.05
2024-02-24T12:10:08.766Z,3.40
2024-02-24T12:11:05.708Z,3.70
2024-02-24T12:12:02.589Z,2.95
2024-02-24T12:12:59.307Z,3.15
2024-02-24T12:13:56.379Z,3.00
2024-02-24T12:14:55.303Z,3.13
2024-02-24T12:15:52.323Z,2.83
2024-02-24T12:16:49.086Z,3.03
2024-02-24T12:17:46.401Z,3.30
2024-02-24T12:18:44.849Z,3.45
2024-02-24T12:19:41.582Z,3.50
2024-02-24T12:20:39.521Z,3.53
2024-02-24T12:21:36.211Z,3.85
2024-02-24T12:22:33.305Z,3.58
2024-02-24T12:23:32.915Z,3.08
2024-02-24T12:24:30.254Z,3.50
2024-02-24T12:25:27.935Z,3.42
2024-02-24T12:26:26.512Z,3.53
2024-02-24T12:27:23.933Z,3.15
2024-02-24T12:28:20.599Z,3.45
2024-02-24T12:29:17.338Z,3.72
2024-02-24T12:30:14.112Z,3.78
2024-02-24T12:31:12.203Z,3.45
2024-02-24T12:32:09.325Z,3.75
2024-02-24T12:33:07.709Z,3.22
2024-02-24T12:34:04.664Z,3.53
2024-02-24T12:35:05.567Z,3.75
2024-02-24T12:36:07.046Z,3.72
2024-02-24T12:37:04.648Z,3.80
2024-02-24T12:38:02.484Z,4.68
2024-02-24T12:38:59.210Z,3.88
2024-02-24T12:39:55.897Z,3.35
2024-02-24T12:40:52.571Z,3.35
2024-02-24T12:41:49.293Z,3.08
2024-02-24T12:42:45.968Z,3.67
2024-02-24T12:43:43.035Z,3.45
2024-02-24T12:44:39.827Z,3.38
2024-02-24T12:45:36.492Z,3.35
2024-02-24T12:46:33.124Z,3.42